sensor_id;sensor_type;location;lat;lon;timestamp;temperature;humidity
75088;HTU21D;63664;44.868;40.600;2023-03-31T00:00:55;2.43;85.58
75088;HTU21D;63664;44.868;40.600;2023-03-31T00:03:30;2.42;85.58
75088;HTU21D;63664;44.868;40.600;2023-03-31T00:06:00;2.43;85.62
75088;HTU21D;63664;44.868;40.600;2023-03-31T00:08:27;2.42;85.61
75088;HTU21D;63664;44.868;40.600;2023-03-31T00:11:05;2.41;85.67
75088;HTU21D;63664;44.868;40.600;2023-03-31T00:13:35;2.40;85.69
75088;HTU21D;63664;44.868;40.600;2023-03-31T00:16:08;2.39;85.77
75088;HTU21D;63664;44.868;40.600;2023-03-31T00:18:38;2.39;85.80
75088;HTU21D;63664;44.868;40.600;2023-03-31T00:21:19;2.38;85.86
75088;HTU21D;63664;44.868;40.600;2023-03-31T00:23:54;2.39;85.84
75088;HTU21D;63664;44.868;40.600;2023-03-31T00:26:24;2.40;85.80
75088;HTU21D;63664;44.868;40.600;2023-03-31T00:28:54;2.43;85.84
75088;HTU21D;63664;44.868;40.600;2023-03-31T00:31:21;2.43;85.86
75088;HTU21D;63664;44.868;40.600;2023-03-31T00:33:49;2.45;85.85
75088;HTU21D;63664;44.868;40.600;2023-03-31T00:36:16;2.49;85.83
75088;HTU21D;63664;44.868;40.600;2023-03-31T00:38:47;2.52;85.81
75088;HTU21D;63664;44.868;40.600;2023-03-31T00:41:18;2.56;85.74
75088;HTU21D;63664;44.868;40.600;2023-03-31T00:46:51;2.64;85.71
75088;HTU21D;63664;44.868;40.600;2023-03-31T00:49:35;2.65;85.80
75088;HTU21D;63664;44.868;40.600;2023-03-31T00:54:35;2.65;85.85
75088;HTU21D;63664;44.868;40.600;2023-03-31T00:57:07;2.64;85.90
75088;HTU21D;63664;44.868;40.600;2023-03-31T00:59:41;2.64;85.96
75088;HTU21D;63664;44.868;40.600;2023-03-31T01:02:08;2.65;85.98
75088;HTU21D;63664;44.868;40.600;2023-03-31T01:04:45;2.64;85.96
75088;HTU21D;63664;44.868;40.600;2023-03-31T01:07:29;2.66;85.96
75088;HTU21D;63664;44.868;40.600;2023-03-31T01:10:00;2.64;86.00
75088;HTU21D;63664;44.868;40.600;2023-03-31T01:12:31;2.62;86.09
75088;HTU21D;63664;44.868;40.600;2023-03-31T01:15:02;2.65;86.09
75088;HTU21D;63664;44.868;40.600;2023-03-31T01:17:29;2.65;86.03
75088;HTU21D;63664;44.868;40.600;2023-03-31T01:20:09;2.65;86.06
75088;HTU21D;63664;44.868;40.600;2023-03-31T01:28:46;2.65;86.07
75088;HTU21D;63664;44.868;40.600;2023-03-31T01:37:21;2.66;86.12
75088;HTU21D;63664;44.868;40.600;2023-03-31T01:40:07;2.67;86.15
75088;HTU21D;63664;44.868;40.600;2023-03-31T01:45:24;2.64;86.27
75088;HTU21D;63664;44.868;40.600;2023-03-31T01:48:04;2.62;86.32
75088;HTU21D;63664;44.868;40.600;2023-03-31T01:50:52;2.61;86.38
75088;HTU21D;63664;44.868;40.600;2023-03-31T01:53:35;2.61;86.38
75088;HTU21D;63664;44.868;40.600;2023-03-31T01:59:27;2.57;86.57
75088;HTU21D;63664;44.868;40.600;2023-03-31T02:02:24;2.54;86.61
75088;HTU21D;63664;44.868;40.600;2023-03-31T02:05:13;2.51;86.61
75088;HTU21D;63664;44.868;40.600;2023-03-31T02:08:03;2.49;86.70
75088;HTU21D;63664;44.868;40.600;2023-03-31T02:10:32;2.45;86.74
75088;HTU21D;63664;44.868;40.600;2023-03-31T02:13:02;2.42;86.81
75088;HTU21D;63664;44.868;40.600;2023-03-31T02:15:35;2.41;86.91
75088;HTU21D;63664;44.868;40.600;2023-03-31T02:18:05;2.40;86.93
75088;HTU21D;63664;44.868;40.600;2023-03-31T02:20:41;2.36;86.85
75088;HTU21D;63664;44.868;40.600;2023-03-31T02:23:13;2.32;87.01
75088;HTU21D;63664;44.868;40.600;2023-03-31T02:25:52;2.29;87.13
75088;HTU21D;63664;44.868;40.600;2023-03-31T02:28:26;2.25;87.22
75088;HTU21D;63664;44.868;40.600;2023-03-31T02:31:20;2.24;87.37
75088;HTU21D;63664;44.868;40.600;2023-03-31T02:33:51;2.21;87.34
75088;HTU21D;63664;44.868;40.600;2023-03-31T02:36:23;2.20;87.39
75088;HTU21D;63664;44.868;40.600;2023-03-31T02:39:06;2.17;87.44
75088;HTU21D;63664;44.868;40.600;2023-03-31T02:41:36;2.15;87.49
75088;HTU21D;63664;44.868;40.600;2023-03-31T02:44:03;2.12;87.57
75088;HTU21D;63664;44.868;40.600;2023-03-31T02:46:31;2.10;87.67
75088;HTU21D;63664;44.868;40.600;2023-03-31T02:49:00;2.09;87.72
75088;HTU21D;63664;44.868;40.600;2023-03-31T02:57:26;2.00;87.78
75088;HTU21D;63664;44.868;40.600;2023-03-31T03:17:31;1.93;88.08
75088;HTU21D;63664;44.868;40.600;2023-03-31T03:20:00;1.94;88.09
75088;HTU21D;63664;44.868;40.600;2023-03-31T03:22:34;1.95;88.06
75088;HTU21D;63664;44.868;40.600;2023-03-31T03:25:07;1.96;88.07
75088;HTU21D;63664;44.868;40.600;2023-03-31T03:27:39;2.00;88.12
75088;HTU21D;63664;44.868;40.600;2023-03-31T03:30:08;2.03;88.02
75088;HTU21D;63664;44.868;40.600;2023-03-31T03:32:36;2.06;88.00
75088;HTU21D;63664;44.868;40.600;2023-03-31T03:35:06;2.11;87.97
75088;HTU21D;63664;44.868;40.600;2023-03-31T03:37:32;2.13;87.91
75088;HTU21D;63664;44.868;40.600;2023-03-31T03:39:59;2.16;87.93
75088;HTU21D;63664;44.868;40.600;2023-03-31T03:42:27;2.19;87.87
75088;HTU21D;63664;44.868;40.600;2023-03-31T03:44:56;2.22;87.89
75088;HTU21D;63664;44.868;40.600;2023-03-31T03:47:22;2.26;87.86
75088;HTU21D;63664;44.868;40.600;2023-03-31T03:49:53;2.29;87.83
75088;HTU21D;63664;44.868;40.600;2023-03-31T03:52:20;2.35;87.80
75088;HTU21D;63664;44.868;40.600;2023-03-31T03:54:49;2.40;87.74
75088;HTU21D;63664;44.868;40.600;2023-03-31T03:57:15;2.42;87.67
75088;HTU21D;63664;44.868;40.600;2023-03-31T03:59:42;2.47;87.65
75088;HTU21D;63664;44.868;40.600;2023-03-31T04:02:11;2.52;87.63
75088;HTU21D;63664;44.868;40.600;2023-03-31T04:04:39;2.57;87.54
75088;HTU21D;63664;44.868;40.600;2023-03-31T04:07:10;2.62;87.48
75088;HTU21D;63664;44.868;40.600;2023-03-31T04:09:39;2.68;87.41
75088;HTU21D;63664;44.868;40.600;2023-03-31T04:12:05;2.72;87.36
75088;HTU21D;63664;44.868;40.600;2023-03-31T04:14:31;2.83;87.28
75088;HTU21D;63664;44.868;40.600;2023-03-31T04:17:00;2.89;87.16
75088;HTU21D;63664;44.868;40.600;2023-03-31T04:19:28;2.99;86.99
75088;HTU21D;63664;44.868;40.600;2023-03-31T04:21:56;3.05;86.86
75088;HTU21D;63664;44.868;40.600;2023-03-31T04:24:29;3.13;86.77
75088;HTU21D;63664;44.868;40.600;2023-03-31T04:27:00;3.23;86.61
75088;HTU21D;63664;44.868;40.600;2023-03-31T04:29:30;3.32;86.50
75088;HTU21D;63664;44.868;40.600;2023-03-31T04:31:59;3.42;86.30
75088;HTU21D;63664;44.868;40.600;2023-03-31T04:34:30;3.54;86.10
75088;HTU21D;63664;44.868;40.600;2023-03-31T04:37:00;3.63;85.93
75088;HTU21D;63664;44.868;40.600;2023-03-31T04:39:30;3.71;85.70
75088;HTU21D;63664;44.868;40.600;2023-03-31T04:42:03;3.84;85.61
75088;HTU21D;63664;44.868;40.600;2023-03-31T04:44:35;3.98;85.38
75088;HTU21D;63664;44.868;40.600;2023-03-31T04:47:03;4.10;85.15
75088;HTU21D;63664;44.868;40.600;2023-03-31T04:49:34;4.23;84.87
75088;HTU21D;63664;44.868;40.600;2023-03-31T04:52:00;4.32;84.77
75088;HTU21D;63664;44.868;40.600;2023-03-31T04:54:27;4.37;84.68
75088;HTU21D;63664;44.868;40.600;2023-03-31T04:56:53;4.44;84.57
75088;HTU21D;63664;44.868;40.600;2023-03-31T04:59:21;4.46;84.10
75088;HTU21D;63664;44.868;40.600;2023-03-31T05:01:50;4.47;83.90
75088;HTU21D;63664;44.868;40.600;2023-03-31T05:04:16;4.50;84.00
75088;HTU21D;63664;44.868;40.600;2023-03-31T05:06:42;4.53;83.80
75088;HTU21D;63664;44.868;40.600;2023-03-31T05:09:13;4.59;83.58
75088;HTU21D;63664;44.868;40.600;2023-03-31T05:11:42;4.65;83.54
75088;HTU21D;63664;44.868;40.600;2023-03-31T05:14:08;4.75;83.46
75088;HTU21D;63664;44.868;40.600;2023-03-31T05:16:35;4.81;83.26
75088;HTU21D;63664;44.868;40.600;2023-03-31T05:19:01;4.89;83.09
75088;HTU21D;63664;44.868;40.600;2023-03-31T05:21:30;4.97;82.92
75088;HTU21D;63664;44.868;40.600;2023-03-31T05:23:57;5.08;82.84
75088;HTU21D;63664;44.868;40.600;2023-03-31T05:26:28;5.21;82.66
75088;HTU21D;63664;44.868;40.600;2023-03-31T05:28:57;5.31;82.45
75088;HTU21D;63664;44.868;40.600;2023-03-31T05:31:23;5.41;82.19
75088;HTU21D;63664;44.868;40.600;2023-03-31T05:33:53;5.49;82.06
75088;HTU21D;63664;44.868;40.600;2023-03-31T05:36:22;5.63;81.81
75088;HTU21D;63664;44.868;40.600;2023-03-31T05:38:50;5.76;81.72
75088;HTU21D;63664;44.868;40.600;2023-03-31T05:41:17;5.86;81.34
75088;HTU21D;63664;44.868;40.600;2023-03-31T05:43:46;5.99;81.10
75088;HTU21D;63664;44.868;40.600;2023-03-31T05:46:12;6.10;80.90
75088;HTU21D;63664;44.868;40.600;2023-03-31T05:48:38;6.20;80.71
75088;HTU21D;63664;44.868;40.600;2023-03-31T05:51:07;6.27;80.56
75088;HTU21D;63664;44.868;40.600;2023-03-31T05:53:36;6.36;80.39
75088;HTU21D;63664;44.868;40.600;2023-03-31T05:56:04;6.48;80.15
75088;HTU21D;63664;44.868;40.600;2023-03-31T05:58:33;6.57;79.81
75088;HTU21D;63664;44.868;40.600;2023-03-31T06:01:09;6.63;79.71
75088;HTU21D;63664;44.868;40.600;2023-03-31T06:03:39;6.69;79.69
75088;HTU21D;63664;44.868;40.600;2023-03-31T06:06:09;6.72;79.24
75088;HTU21D;63664;44.868;40.600;2023-03-31T06:08:38;6.72;79.18
75088;HTU21D;63664;44.868;40.600;2023-03-31T06:11:09;6.69;78.95
75088;HTU21D;63664;44.868;40.600;2023-03-31T06:13:39;6.69;79.01
75088;HTU21D;63664;44.868;40.600;2023-03-31T06:16:06;6.68;78.78
75088;HTU21D;63664;44.868;40.600;2023-03-31T06:18:40;6.71;78.72
75088;HTU21D;63664;44.868;40.600;2023-03-31T06:21:09;6.82;78.98
75088;HTU21D;63664;44.868;40.600;2023-03-31T06:23:42;6.96;78.65
75088;HTU21D;63664;44.868;40.600;2023-03-31T06:26:15;7.13;78.47
75088;HTU21D;63664;44.868;40.600;2023-03-31T06:28:46;7.23;78.21
75088;HTU21D;63664;44.868;40.600;2023-03-31T06:31:17;7.31;78.19
75088;HTU21D;63664;44.868;40.600;2023-03-31T06:33:44;7.42;78.21
75088;HTU21D;63664;44.868;40.600;2023-03-31T06:36:12;7.53;77.98
75088;HTU21D;63664;44.868;40.600;2023-03-31T06:38:45;7.59;77.78
75088;HTU21D;63664;44.868;40.600;2023-03-31T06:41:14;7.64;77.72
75088;HTU21D;63664;44.868;40.600;2023-03-31T06:43:41;7.77;77.75
75088;HTU21D;63664;44.868;40.600;2023-03-31T06:46:10;7.88;77.49
75088;HTU21D;63664;44.868;40.600;2023-03-31T06:48:44;7.90;77.21
75088;HTU21D;63664;44.868;40.600;2023-03-31T06:51:13;8.03;77.16
75088;HTU21D;63664;44.868;40.600;2023-03-31T06:53:39;8.12;76.82
75088;HTU21D;63664;44.868;40.600;2023-03-31T06:56:11;8.18;76.58
75088;HTU21D;63664;44.868;40.600;2023-03-31T06:58:42;8.18;76.46
75088;HTU21D;63664;44.868;40.600;2023-03-31T07:01:13;8.21;76.22
75088;HTU21D;63664;44.868;40.600;2023-03-31T07:03:42;8.18;76.28
75088;HTU21D;63664;44.868;40.600;2023-03-31T07:06:14;8.22;76.30
75088;HTU21D;63664;44.868;40.600;2023-03-31T07:08:43;8.21;76.19
75088;HTU21D;63664;44.868;40.600;2023-03-31T07:11:10;8.23;75.72
75088;HTU21D;63664;44.868;40.600;2023-03-31T07:13:39;8.24;75.21
75088;HTU21D;63664;44.868;40.600;2023-03-31T07:16:08;8.30;75.05
75088;HTU21D;63664;44.868;40.600;2023-03-31T07:18:36;8.48;74.54
75088;HTU21D;63664;44.868;40.600;2023-03-31T07:21:03;8.58;74.06
75088;HTU21D;63664;44.868;40.600;2023-03-31T07:23:37;8.71;73.65
75088;HTU21D;63664;44.868;40.600;2023-03-31T07:26:08;8.81;73.66
75088;HTU21D;63664;44.868;40.600;2023-03-31T07:28:39;8.88;73.19
75088;HTU21D;63664;44.868;40.600;2023-03-31T07:31:12;9.01;73.54
75088;HTU21D;63664;44.868;40.600;2023-03-31T07:33:41;9.22;72.82
75088;HTU21D;63664;44.868;40.600;2023-03-31T07:36:13;9.35;72.60
75088;HTU21D;63664;44.868;40.600;2023-03-31T07:38:40;9.40;71.97
75088;HTU21D;63664;44.868;40.600;2023-03-31T07:41:12;9.44;71.96
75088;HTU21D;63664;44.868;40.600;2023-03-31T07:43:39;9.57;71.63
75088;HTU21D;63664;44.868;40.600;2023-03-31T07:46:12;9.63;70.84
75088;HTU21D;63664;44.868;40.600;2023-03-31T07:48:39;9.65;70.64
75088;HTU21D;63664;44.868;40.600;2023-03-31T07:51:08;9.62;70.26
75088;HTU21D;63664;44.868;40.600;2023-03-31T07:53:40;9.55;70.11
75088;HTU21D;63664;44.868;40.600;2023-03-31T07:56:06;9.61;70.09
75088;HTU21D;63664;44.868;40.600;2023-03-31T07:58:33;9.74;69.54
75088;HTU21D;63664;44.868;40.600;2023-03-31T08:01:02;9.86;69.04
75088;HTU21D;63664;44.868;40.600;2023-03-31T08:03:31;10.08;68.85
75088;HTU21D;63664;44.868;40.600;2023-03-31T08:05:59;10.26;68.09
75088;HTU21D;63664;44.868;40.600;2023-03-31T08:08:26;10.37;67.85
75088;HTU21D;63664;44.868;40.600;2023-03-31T08:10:54;10.35;67.27
75088;HTU21D;63664;44.868;40.600;2023-03-31T08:13:23;10.31;67.24
75088;HTU21D;63664;44.868;40.600;2023-03-31T08:15:52;10.34;67.00
75088;HTU21D;63664;44.868;40.600;2023-03-31T08:18:18;10.35;66.78
75088;HTU21D;63664;44.868;40.600;2023-03-31T08:20:48;10.37;66.00
75088;HTU21D;63664;44.868;40.600;2023-03-31T08:23:19;10.43;65.75
75088;HTU21D;63664;44.868;40.600;2023-03-31T08:25:45;10.46;65.29
75088;HTU21D;63664;44.868;40.600;2023-03-31T08:28:12;10.56;65.30
75088;HTU21D;63664;44.868;40.600;2023-03-31T08:30:43;10.68;65.22
75088;HTU21D;63664;44.868;40.600;2023-03-31T08:33:13;10.80;64.67
75088;HTU21D;63664;44.868;40.600;2023-03-31T08:35:39;10.89;64.25
75088;HTU21D;63664;44.868;40.600;2023-03-31T08:38:07;10.89;63.97
75088;HTU21D;63664;44.868;40.600;2023-03-31T08:40:37;10.87;64.05
75088;HTU21D;63664;44.868;40.600;2023-03-31T08:43:11;10.89;63.95
75088;HTU21D;63664;44.868;40.600;2023-03-31T08:45:45;10.88;63.60
75088;HTU21D;63664;44.868;40.600;2023-03-31T08:48:36;10.78;63.51
75088;HTU21D;63664;44.868;40.600;2023-03-31T08:51:31;10.82;62.55
75088;HTU21D;63664;44.868;40.600;2023-03-31T08:54:51;10.80;62.87
75088;HTU21D;63664;44.868;40.600;2023-03-31T08:56:52;10.83;62.53
75088;HTU21D;63664;44.868;40.600;2023-03-31T08:59:35;10.93;62.40
75088;HTU21D;63664;44.868;40.600;2023-03-31T09:07:47;11.26;61.59
75088;HTU21D;63664;44.868;40.600;2023-03-31T09:13:39;11.46;59.90
75088;HTU21D;63664;44.868;40.600;2023-03-31T09:16:21;11.48;60.36
75088;HTU21D;63664;44.868;40.600;2023-03-31T09:18:53;11.64;60.30
75088;HTU21D;63664;44.868;40.600;2023-03-31T09:21:31;11.79;59.35
75088;HTU21D;63664;44.868;40.600;2023-03-31T09:24:13;11.81;59.10
75088;HTU21D;63664;44.868;40.600;2023-03-31T09:27:02;11.78;58.29
75088;HTU21D;63664;44.868;40.600;2023-03-31T09:29:41;11.87;57.77
75088;HTU21D;63664;44.868;40.600;2023-03-31T09:34:40;12.02;56.69
75088;HTU21D;63664;44.868;40.600;2023-03-31T09:37:12;12.05;55.97
75088;HTU21D;63664;44.868;40.600;2023-03-31T09:39:41;12.36;55.81
75088;HTU21D;63664;44.868;40.600;2023-03-31T09:42:12;12.53;55.45
75088;HTU21D;63664;44.868;40.600;2023-03-31T09:44:44;12.64;54.75
75088;HTU21D;63664;44.868;40.600;2023-03-31T09:47:32;12.78;54.39
75088;HTU21D;63664;44.868;40.600;2023-03-31T09:50:07;12.90;54.33
75088;HTU21D;63664;44.868;40.600;2023-03-31T09:52:39;13.09;54.49
75088;HTU21D;63664;44.868;40.600;2023-03-31T09:55:23;13.21;53.56
75088;HTU21D;63664;44.868;40.600;2023-03-31T09:57:50;13.25;53.04
75088;HTU21D;63664;44.868;40.600;2023-03-31T10:00:21;13.24;53.47
75088;HTU21D;63664;44.868;40.600;2023-03-31T10:05:53;13.26;51.90
75088;HTU21D;63664;44.868;40.600;2023-03-31T10:13:58;13.21;52.56
75088;HTU21D;63664;44.868;40.600;2023-03-31T10:18:55;13.20;52.53
75088;HTU21D;63664;44.868;40.600;2023-03-31T10:21:41;13.10;52.33
75088;HTU21D;63664;44.868;40.600;2023-03-31T10:24:10;13.14;51.32
75088;HTU21D;63664;44.868;40.600;2023-03-31T10:26:38;13.09;51.24
75088;HTU21D;63664;44.868;40.600;2023-03-31T10:29:36;13.04;51.66
75088;HTU21D;63664;44.868;40.600;2023-03-31T10:32:27;13.05;52.36
75088;HTU21D;63664;44.868;40.600;2023-03-31T10:35:11;13.05;52.22
75088;HTU21D;63664;44.868;40.600;2023-03-31T10:37:40;13.09;52.04
75088;HTU21D;63664;44.868;40.600;2023-03-31T10:40:25;13.08;52.23
75088;HTU21D;63664;44.868;40.600;2023-03-31T10:43:15;13.09;52.02
75088;HTU21D;63664;44.868;40.600;2023-03-31T10:46:00;12.96;51.44
75088;HTU21D;63664;44.868;40.600;2023-03-31T10:48:32;12.79;51.86
75088;HTU21D;63664;44.868;40.600;2023-03-31T10:53:43;12.64;51.96
75088;HTU21D;63664;44.868;40.600;2023-03-31T11:13:28;12.75;50.77
75088;HTU21D;63664;44.868;40.600;2023-03-31T11:18:44;12.62;51.93
75088;HTU21D;63664;44.868;40.600;2023-03-31T11:21:39;12.59;51.78
75088;HTU21D;63664;44.868;40.600;2023-03-31T11:35:18;12.65;52.20
75088;HTU21D;63664;44.868;40.600;2023-03-31T11:38:07;12.70;51.98
75088;HTU21D;63664;44.868;40.600;2023-03-31T11:41:12;12.72;51.59
75088;HTU21D;63664;44.868;40.600;2023-03-31T11:43:54;12.76;51.60
75088;HTU21D;63664;44.868;40.600;2023-03-31T11:46:56;12.75;51.91
75088;HTU21D;63664;44.868;40.600;2023-03-31T11:52:28;12.92;51.79
75088;HTU21D;63664;44.868;40.600;2023-03-31T11:54:57;12.91;51.31
75088;HTU21D;63664;44.868;40.600;2023-03-31T11:57:27;12.80;50.77
75088;HTU21D;63664;44.868;40.600;2023-03-31T12:00:25;12.76;49.75
75088;HTU21D;63664;44.868;40.600;2023-03-31T12:03:13;12.77;50.58
75088;HTU21D;63664;44.868;40.600;2023-03-31T12:05:52;12.70;51.26
75088;HTU21D;63664;44.868;40.600;2023-03-31T12:11:56;12.62;50.98
75088;HTU21D;63664;44.868;40.600;2023-03-31T12:17:14;12.51;50.89
75088;HTU21D;63664;44.868;40.600;2023-03-31T12:20:02;12.44;51.29
75088;HTU21D;63664;44.868;40.600;2023-03-31T12:22:43;12.38;51.40
75088;HTU21D;63664;44.868;40.600;2023-03-31T12:25:14;12.45;51.80
75088;HTU21D;63664;44.868;40.600;2023-03-31T12:27:44;12.57;51.92
75088;HTU21D;63664;44.868;40.600;2023-03-31T12:30:34;12.69;51.37
75088;HTU21D;63664;44.868;40.600;2023-03-31T12:39:43;12.50;50.81
75088;HTU21D;63664;44.868;40.600;2023-03-31T12:42:14;12.49;51.88
75088;HTU21D;63664;44.868;40.600;2023-03-31T12:44:56;12.44;51.61
75088;HTU21D;63664;44.868;40.600;2023-03-31T12:50:45;12.33;50.90
75088;HTU21D;63664;44.868;40.600;2023-03-31T12:56:20;12.29;51.61
75088;HTU21D;63664;44.868;40.600;2023-03-31T12:58:49;12.32;51.50
75088;HTU21D;63664;44.868;40.600;2023-03-31T13:01:18;12.31;51.60
75088;HTU21D;63664;44.868;40.600;2023-03-31T13:09:05;12.21;51.60
75088;HTU21D;63664;44.868;40.600;2023-03-31T13:11:37;12.18;51.24
75088;HTU21D;63664;44.868;40.600;2023-03-31T13:14:26;12.02;51.95
75088;HTU21D;63664;44.868;40.600;2023-03-31T13:17:17;11.99;51.72
75088;HTU21D;63664;44.868;40.600;2023-03-31T13:19:46;11.96;52.04
75088;HTU21D;63664;44.868;40.600;2023-03-31T13:22:32;11.92;52.17
75088;HTU21D;63664;44.868;40.600;2023-03-31T13:28:13;11.98;51.89
75088;HTU21D;63664;44.868;40.600;2023-03-31T13:30:45;11.92;51.88
75088;HTU21D;63664;44.868;40.600;2023-03-31T13:33:56;11.88;51.40
75088;HTU21D;63664;44.868;40.600;2023-03-31T13:50:22;11.30;52.57
75088;HTU21D;63664;44.868;40.600;2023-03-31T14:01:44;11.09;52.46
75088;HTU21D;63664;44.868;40.600;2023-03-31T14:09:46;10.94;52.44
75088;HTU21D;63664;44.868;40.600;2023-03-31T14:14:53;10.93;52.57
75088;HTU21D;63664;44.868;40.600;2023-03-31T14:17:23;10.89;52.70
75088;HTU21D;63664;44.868;40.600;2023-03-31T14:20:00;10.86;52.46
75088;HTU21D;63664;44.868;40.600;2023-03-31T14:22:57;10.75;52.69
75088;HTU21D;63664;44.868;40.600;2023-03-31T14:28:36;10.66;52.95
75088;HTU21D;63664;44.868;40.600;2023-03-31T14:31:11;10.62;53.23
75088;HTU21D;63664;44.868;40.600;2023-03-31T14:34:28;10.55;53.39
75088;HTU21D;63664;44.868;40.600;2023-03-31T14:37:06;10.54;53.59
75088;HTU21D;63664;44.868;40.600;2023-03-31T14:39:52;10.44;53.50
75088;HTU21D;63664;44.868;40.600;2023-03-31T14:42:41;10.37;53.94
75088;HTU21D;63664;44.868;40.600;2023-03-31T14:45:21;10.35;54.03
75088;HTU21D;63664;44.868;40.600;2023-03-31T14:48:11;10.29;53.68
75088;HTU21D;63664;44.868;40.600;2023-03-31T14:50:43;10.22;54.19
75088;HTU21D;63664;44.868;40.600;2023-03-31T14:53:15;10.16;54.36
75088;HTU21D;63664;44.868;40.600;2023-03-31T14:55:47;10.08;54.49
75088;HTU21D;63664;44.868;40.600;2023-03-31T14:58:32;10.03;54.65
75088;HTU21D;63664;44.868;40.600;2023-03-31T15:01:01;9.95;54.77
75088;HTU21D;63664;44.868;40.600;2023-03-31T15:03:34;9.84;55.08
75088;HTU21D;63664;44.868;40.600;2023-03-31T15:06:04;9.75;55.23
75088;HTU21D;63664;44.868;40.600;2023-03-31T15:08:34;9.64;55.29
75088;HTU21D;63664;44.868;40.600;2023-03-31T15:11:06;9.53;55.50
75088;HTU21D;63664;44.868;40.600;2023-03-31T15:13:35;9.46;55.71
75088;HTU21D;63664;44.868;40.600;2023-03-31T15:16:33;9.38;55.89
75088;HTU21D;63664;44.868;40.600;2023-03-31T15:19:15;9.31;56.02
75088;HTU21D;63664;44.868;40.600;2023-03-31T15:21:43;9.22;56.17
75088;HTU21D;63664;44.868;40.600;2023-03-31T15:24:13;9.14;56.29
75088;HTU21D;63664;44.868;40.600;2023-03-31T15:32:21;8.90;56.87
75088;HTU21D;63664;44.868;40.600;2023-03-31T15:34:51;8.82;57.15
75088;HTU21D;63664;44.868;40.600;2023-03-31T15:37:23;8.77;57.33
75088;HTU21D;63664;44.868;40.600;2023-03-31T15:39:59;8.71;57.51
75088;HTU21D;63664;44.868;40.600;2023-03-31T15:42:27;8.66;57.64
75088;HTU21D;63664;44.868;40.600;2023-03-31T15:47:50;8.57;57.90
75088;HTU21D;63664;44.868;40.600;2023-03-31T15:50:22;8.48;58.18
75088;HTU21D;63664;44.868;40.600;2023-03-31T15:52:51;8.43;58.38
75088;HTU21D;63664;44.868;40.600;2023-03-31T15:57:54;8.31;58.84
75088;HTU21D;63664;44.868;40.600;2023-03-31T16:00:39;8.24;59.07
75088;HTU21D;63664;44.868;40.600;2023-03-31T16:03:35;8.14;59.34
75088;HTU21D;63664;44.868;40.600;2023-03-31T16:09:19;7.93;59.99
75088;HTU21D;63664;44.868;40.600;2023-03-31T16:11:58;7.86;60.36
75088;HTU21D;63664;44.868;40.600;2023-03-31T16:14:47;7.83;60.67
75088;HTU21D;63664;44.868;40.600;2023-03-31T16:17:31;7.77;60.90
75088;HTU21D;63664;44.868;40.600;2023-03-31T16:20:03;7.71;61.15
75088;HTU21D;63664;44.868;40.600;2023-03-31T16:22:53;7.63;61.50
75088;HTU21D;63664;44.868;40.600;2023-03-31T16:25:22;7.57;61.65
75088;HTU21D;63664;44.868;40.600;2023-03-31T16:27:53;7.49;61.99
75088;HTU21D;63664;44.868;40.600;2023-03-31T16:30:34;7.44;62.28
75088;HTU21D;63664;44.868;40.600;2023-03-31T16:33:05;7.40;62.37
75088;HTU21D;63664;44.868;40.600;2023-03-31T16:36:03;7.31;62.76
75088;HTU21D;63664;44.868;40.600;2023-03-31T16:38:30;7.24;62.83
75088;HTU21D;63664;44.868;40.600;2023-03-31T16:41:01;7.20;63.14
75088;HTU21D;63664;44.868;40.600;2023-03-31T16:43:32;7.17;63.33
75088;HTU21D;63664;44.868;40.600;2023-03-31T16:46:01;7.14;63.56
75088;HTU21D;63664;44.868;40.600;2023-03-31T16:48:34;7.11;63.65
75088;HTU21D;63664;44.868;40.600;2023-03-31T16:51:03;7.04;63.83
75088;HTU21D;63664;44.868;40.600;2023-03-31T16:53:35;7.02;64.06
75088;HTU21D;63664;44.868;40.600;2023-03-31T16:56:08;6.99;64.18
75088;HTU21D;63664;44.868;40.600;2023-03-31T16:58:35;6.98;64.26
75088;HTU21D;63664;44.868;40.600;2023-03-31T17:01:04;6.93;64.40
75088;HTU21D;63664;44.868;40.600;2023-03-31T17:03:32;6.87;64.63
75088;HTU21D;63664;44.868;40.600;2023-03-31T17:06:11;6.85;64.85
75088;HTU21D;63664;44.868;40.600;2023-03-31T17:08:40;6.79;64.90
75088;HTU21D;63664;44.868;40.600;2023-03-31T17:11:09;6.74;65.16
75088;HTU21D;63664;44.868;40.600;2023-03-31T17:13:43;6.70;65.33
75088;HTU21D;63664;44.868;40.600;2023-03-31T17:16:10;6.65;65.53
75088;HTU21D;63664;44.868;40.600;2023-03-31T17:18:39;6.60;65.72
75088;HTU21D;63664;44.868;40.600;2023-03-31T17:21:08;6.54;65.88
75088;HTU21D;63664;44.868;40.600;2023-03-31T17:23:38;6.48;66.08
75088;HTU21D;63664;44.868;40.600;2023-03-31T17:26:06;6.45;66.24
75088;HTU21D;63664;44.868;40.600;2023-03-31T17:28:43;6.41;66.36
75088;HTU21D;63664;44.868;40.600;2023-03-31T17:31:18;6.35;66.64
75088;HTU21D;63664;44.868;40.600;2023-03-31T17:33:45;6.33;66.71
75088;HTU21D;63664;44.868;40.600;2023-03-31T17:36:12;6.30;66.88
75088;HTU21D;63664;44.868;40.600;2023-03-31T17:38:42;6.26;67.04
75088;HTU21D;63664;44.868;40.600;2023-03-31T17:41:11;6.23;67.22
75088;HTU21D;63664;44.868;40.600;2023-03-31T17:43:38;6.20;67.33
75088;HTU21D;63664;44.868;40.600;2023-03-31T17:46:08;6.15;67.59
75088;HTU21D;63664;44.868;40.600;2023-03-31T17:48:38;6.12;67.74
75088;HTU21D;63664;44.868;40.600;2023-03-31T17:51:06;6.08;67.96
75088;HTU21D;63664;44.868;40.600;2023-03-31T17:53:37;6.02;68.10
75088;HTU21D;63664;44.868;40.600;2023-03-31T17:56:08;5.96;68.26
75088;HTU21D;63664;44.868;40.600;2023-03-31T17:58:34;5.93;68.37
75088;HTU21D;63664;44.868;40.600;2023-03-31T18:01:03;5.89;68.54
75088;HTU21D;63664;44.868;40.600;2023-03-31T18:03:34;5.83;68.62
75088;HTU21D;63664;44.868;40.600;2023-03-31T18:06:06;5.77;68.89
75088;HTU21D;63664;44.868;40.600;2023-03-31T18:08:36;5.71;69.08
75088;HTU21D;63664;44.868;40.600;2023-03-31T18:11:05;5.65;69.20
75088;HTU21D;63664;44.868;40.600;2023-03-31T18:13:35;5.56;69.32
75088;HTU21D;63664;44.868;40.600;2023-03-31T18:16:03;5.47;69.55
75088;HTU21D;63664;44.868;40.600;2023-03-31T18:18:29;5.37;69.78
75088;HTU21D;63664;44.868;40.600;2023-03-31T18:20:56;5.35;69.97
75088;HTU21D;63664;44.868;40.600;2023-03-31T18:23:25;5.30;70.19
75088;HTU21D;63664;44.868;40.600;2023-03-31T18:25:54;5.24;70.39
75088;HTU21D;63664;44.868;40.600;2023-03-31T18:28:23;5.22;70.45
75088;HTU21D;63664;44.868;40.600;2023-03-31T18:30:52;5.17;70.71
75088;HTU21D;63664;44.868;40.600;2023-03-31T18:33:26;5.11;71.03
75088;HTU21D;63664;44.868;40.600;2023-03-31T18:35:52;5.07;71.22
75088;HTU21D;63664;44.868;40.600;2023-03-31T18:38:21;4.98;71.45
75088;HTU21D;63664;44.868;40.600;2023-03-31T18:40:51;4.92;71.77
75088;HTU21D;63664;44.868;40.600;2023-03-31T18:43:18;4.87;72.00
75088;HTU21D;63664;44.868;40.600;2023-03-31T18:45:49;4.80;72.25
75088;HTU21D;63664;44.868;40.600;2023-03-31T18:48:16;4.77;72.48
75088;HTU21D;63664;44.868;40.600;2023-03-31T18:50:46;4.74;72.75